Time;durP1;ratioP1;P1;durP2;ratioP2;P2;SDS_P1;SDS_P2;PMS_P1;PMS_P2;Temp;Humidity;BMP_temperature;BMP_pressure;BME280_temperature;BME280_humidity;BME280_pressure;Samples;Min_cycle;Max_cycle;Signal;HPM_P1;HPM_P2
2022/01/01 00:00:28;;;;;;;4.30;2.40;;;;;;;;;;7389692;19;19998;-76
2022/01/01 00:02:53;;;;;;;3.40;2.20;;;;;;;;;;7394014;19;20414;-76
2022/01/01 00:05:18;;;;;;;3.22;2.17;;;;;;;;;;7391263;19;19995;-76
2022/01/01 00:07:44;;;;;;;3.08;2.08;;;;;;;;;;7391351;19;20017;-76
2022/01/01 00:10:10;;;;;;;3.95;2.30;;;;;;;;;;7392096;19;20054;-76
2022/01/01 00:12:35;;;;;;;4.20;2.63;;;;;;;;;;7393970;19;20005;-76
2022/01/01 00:15:01;;;;;;;3.95;2.38;;;;;;;;;;7393315;19;20540;-76
2022/01/01 00:17:26;;;;;;;4.07;2.67;;;;;;;;;;7391480;19;19998;-76
2022/01/01 00:19:51;;;;;;;5.07;3.10;;;;;;;;;;7392392;19;19998;-76
2022/01/01 00:22:17;;;;;;;5.63;3.53;;;;;;;;;;7392964;19;20104;-76
2022/01/01 00:24:42;;;;;;;6.95;4.15;;;;;;;;;;7390542;19;19995;-76
2022/01/01 00:27:07;;;;;;;10.88;3.53;;;;;;;;;;7391891;19;20485;-76
2022/01/01 00:29:33;;;;;;;7.20;4.20;;;;;;;;;;7394006;19;20414;-76
2022/01/01 00:31:58;;;;;;;6.45;4.18;;;;;;;;;;7395800;19;20001;-76
2022/01/01 00:34:23;;;;;;;8.20;4.70;;;;;;;;;;7392162;19;20026;-76
2022/01/01 00:36:48;;;;;;;9.02;4.85;;;;;;;;;;7391585;19;20489;-76
2022/01/01 00:39:14;;;;;;;8.55;4.60;;;;;;;;;;7389443;19;20023;-76
2022/01/01 00:41:39;;;;;;;7.13;3.90;;;;;;;;;;7390820;19;20064;-76
2022/01/01 00:44:04;;;;;;;8.27;5.15;;;;;;;;;;7391875;19;19998;-76
2022/01/01 00:46:30;;;;;;;8.38;4.65;;;;;;;;;;7391542;19;20034;-76
2022/01/01 00:48:55;;;;;;;8.35;4.65;;;;;;;;;;7391123;19;20394;-76
2022/01/01 00:51:21;;;;;;;6.68;4.32;;;;;;;;;;7391707;19;20093;-76
2022/01/01 00:53:46;;;;;;;8.25;4.15;;;;;;;;;;7390987;19;20458;-76
2022/01/01 00:56:12;;;;;;;6.20;4.13;;;;;;;;;;7391727;19;19999;-76
2022/01/01 00:58:37;;;;;;;9.20;4.47;;;;;;;;;;7390749;19;20119;-76
2022/01/01 01:01:02;;;;;;;7.40;4.22;;;;;;;;;;7391185;19;20022;-76
2022/01/01 01:03:28;;;;;;;6.63;4.20;;;;;;;;;;7391112;19;20002;-76
2022/01/01 01:05:53;;;;;;;7.72;3.83;;;;;;;;;;7391275;19;19997;-76
2022/01/01 01:08:18;;;;;;;8.93;4.85;;;;;;;;;;7388360;19;19999;-75
2022/01/01 01:10:46;;;;;;;6.78;3.83;;;;;;;;;;7391038;19;19995;-76
2022/01/01 01:13:14;;;;;;;9.05;4.18;;;;;;;;;;7390312;19;20040;-76
2022/01/01 01:15:40;;;;;;;7.43;4.05;;;;;;;;;;7390901;19;20307;-76
2022/01/01 01:18:05;;;;;;;7.40;4.18;;;;;;;;;;7389081;19;20001;-76
2022/01/01 01:20:31;;;;;;;7.80;4.28;;;;;;;;;;7393910;19;20066;-76
2022/01/01 01:22:57;;;;;;;6.57;3.72;;;;;;;;;;7393049;19;19998;-76
2022/01/01 01:25:25;;;;;;;10.45;4.35;;;;;;;;;;7389918;19;20059;-76
2022/01/01 01:27:51;;;;;;;7.55;4.25;;;;;;;;;;7389029;19;20036;-76
2022/01/01 01:30:18;;;;;;;6.25;3.85;;;;;;;;;;7391262;19;20464;-76
2022/01/01 01:32:44;;;;;;;7.30;4.28;;;;;;;;;;7388771;19;19998;-76
2022/01/01 01:35:11;;;;;;;5.93;3.85;;;;;;;;;;7390055;19;20002;-76
2022/01/01 01:37:36;;;;;;;5.85;3.60;;;;;;;;;;7389652;19;20046;-76
2022/01/01 01:40:03;;;;;;;5.28;3.53;;;;;;;;;;7389086;19;20375;-76
2022/01/01 01:42:30;;;;;;;7.03;3.92;;;;;;;;;;7390799;19;20058;-75
2022/01/01 01:44:56;;;;;;;7.70;4.03;;;;;;;;;;7390012;19;20023;-75
2022/01/01 01:47:35;;;;;;;8.40;4.53;;;;;;;;;;7388627;19;19995;-76
2022/01/01 01:50:05;;;;;;;10.85;4.40;;;;;;;;;;7389539;19;20002;-76
2022/01/01 01:52:33;;;;;;;5.82;3.35;;;;;;;;;;7389952;19;19999;-76
2022/01/01 01:55:00;;;;;;;6.68;3.45;;;;;;;;;;7389121;19;20065;-76
2022/01/01 01:57:27;;;;;;;8.43;4.30;;;;;;;;;;7388850;19;19990;-76
2022/01/01 01:59:53;;;;;;;5.55;2.92;;;;;;;;;;7389272;19;20014;-76
2022/01/01 02:02:18;;;;;;;7.70;4.07;;;;;;;;;;7388062;19;20470;-75
2022/01/01 02:04:43;;;;;;;7.65;3.67;;;;;;;;;;7389371;19;20070;-75
2022/01/01 02:07:10;;;;;;;5.30;3.63;;;;;;;;;;7388436;19;20141;-76
2022/01/01 02:09:37;;;;;;;5.03;3.40;;;;;;;;;;7391689;19;20084;-75
2022/01/01 02:12:03;;;;;;;5.70;3.40;;;;;;;;;;7392554;19;20003;-76
2022/01/01 02:14:47;;;;;;;4.68;3.00;;;;;;;;;;7389352;19;20016;-76
2022/01/01 02:17:13;;;;;;;5.75;2.90;;;;;;;;;;7388132;19;20372;-76
2022/01/01 02:19:59;;;;;;;5.10;2.80;;;;;;;;;;7389980;19;20058;-76
2022/01/01 02:22:26;;;;;;;6.22;3.00;;;;;;;;;;7390547;19;20006;-76
2022/01/01 02:24:51;;;;;;;5.38;3.10;;;;;;;;;;7392756;19;20023;-76
2022/01/01 02:27:17;;;;;;;7.15;4.07;;;;;;;;;;7395270;19;20007;-76
2022/01/01 02:29:42;;;;;;;6.07;3.85;;;;;;;;;;7396172;19;19994;-76
2022/01/01 02:32:10;;;;;;;6.22;3.50;;;;;;;;;;7396474;19;20101;-76
2022/01/01 02:34:37;;;;;;;5.88;3.60;;;;;;;;;;7397223;19;20115;-76
2022/01/01 02:37:02;;;;;;;5.97;3.67;;;;;;;;;;7394949;19;20069;-76
2022/01/01 02:39:28;;;;;;;6.38;3.65;;;;;;;;;;7394856;19;19999;-76
2022/01/01 02:41:55;;;;;;;7.88;3.88;;;;;;;;;;7393948;19;19991;-75
2022/01/01 02:44:22;;;;;;;6.57;3.20;;;;;;;;;;7396075;19;19998;-75
2022/01/01 02:46:47;;;;;;;6.53;3.42;;;;;;;;;;7394982;19;20153;-77
2022/01/01 02:49:12;;;;;;;6.82;3.60;;;;;;;;;;7395160;19;20477;-76
2022/01/01 02:51:38;;;;;;;5.40;3.63;;;;;;;;;;7395831;19;19987;-76
2022/01/01 02:54:03;;;;;;;8.00;4.03;;;;;;;;;;7395083;19;20154;-76
2022/01/01 02:56:28;;;;;;;5.15;3.30;;;;;;;;;;7395640;19;20093;-76
2022/01/01 02:58:54;;;;;;;5.28;3.20;;;;;;;;;;7398806;19;19991;-76
2022/01/01 03:01:19;;;;;;;5.72;3.45;;;;;;;;;;7397889;19;20375;-76
2022/01/01 03:03:46;;;;;;;5.32;2.75;;;;;;;;;;7395449;19;19999;-76
2022/01/01 03:06:18;;;;;;;3.50;2.50;;;;;;;;;;7395282;19;20024;-76
2022/01/01 03:08:44;;;;;;;4.35;2.72;;;;;;;;;;7393916;19;20080;-76
2022/01/01 03:11:09;;;;;;;4.63;2.50;;;;;;;;;;7395600;19;19991;-76
2022/01/01 03:13:34;;;;;;;4.50;2.70;;;;;;;;;;7395445;19;20002;-76
2022/01/01 03:15:59;;;;;;;3.47;2.40;;;;;;;;;;7395294;19;19995;-76
2022/01/01 03:18:25;;;;;;;4.13;2.60;;;;;;;;;;7395334;19;20008;-76
2022/01/01 03:20:50;;;;;;;3.47;2.03;;;;;;;;;;7394781;19;20007;-76
2022/01/01 03:23:15;;;;;;;2.45;2.20;;;;;;;;;;7398535;19;20505;-76
2022/01/01 03:25:40;;;;;;;5.90;2.80;;;;;;;;;;7394907;19;20014;-77
2022/01/01 03:28:06;;;;;;;8.18;3.17;;;;;;;;;;7392341;19;20489;-76
2022/01/01 03:30:32;;;;;;;2.78;2.13;;;;;;;;;;7394811;19;20010;-76
2022/01/01 03:32:57;;;;;;;3.25;2.00;;;;;;;;;;7394707;19;20028;-76
2022/01/01 03:35:22;;;;;;;4.78;2.30;;;;;;;;;;7394195;19;20024;-76
2022/01/01 03:37:48;;;;;;;4.75;2.60;;;;;;;;;;7392563;19;20026;-76
2022/01/01 03:40:13;;;;;;;3.78;2.35;;;;;;;;;;7392910;19;20338;-76
2022/01/01 03:42:38;;;;;;;4.07;2.97;;;;;;;;;;7394337;19;20339;-76
2022/01/01 03:45:06;;;;;;;6.43;2.85;;;;;;;;;;7394443;19;19999;-76
2022/01/01 03:47:32;;;;;;;3.15;2.17;;;;;;;;;;7394610;19;20017;-76
2022/01/01 03:49:57;;;;;;;4.85;2.58;;;;;;;;;;7396529;19;20071;-76
2022/01/01 03:52:22;;;;;;;5.07;2.28;;;;;;;;;;7394119;19;19998;-76
2022/01/01 03:54:48;;;;;;;4.05;2.08;;;;;;;;;;7393137;19;19998;-76
2022/01/01 03:57:13;;;;;;;3.22;1.80;;;;;;;;;;7392474;19;20077;-76
2022/01/01 03:59:38;;;;;;;5.90;1.80;;;;;;;;;;7393292;19;20019;-76
2022/01/01 04:02:03;;;;;;;2.20;1.55;;;;;;;;;;7391888;19;20424;-76
2022/01/01 04:04:29;;;;;;;3.28;2.13;;;;;;;;;;7393586;19;20030;-76
2022/01/01 04:06:54;;;;;;;5.13;2.85;;;;;;;;;;7392900;19;20106;-76
2022/01/01 04:09:20;;;;;;;3.70;2.33;;;;;;;;;;7391811;19;19995;-76
2022/01/01 04:11:46;;;;;;;3.47;2.17;;;;;;;;;;7393841;19;19998;-76
2022/01/01 04:14:14;;;;;;;5.55;2.35;;;;;;;;;;7392893;19;20035;-76
2022/01/01 04:16:40;;;;;;;4.90;2.65;;;;;;;;;;7392499;19;20457;-77
2022/01/01 04:19:05;;;;;;;4.28;2.35;;;;;;;;;;7392189;19;20073;-76
2022/01/01 04:21:30;;;;;;;6.30;2.97;;;;;;;;;;7393016;19;20001;-77
2022/01/01 04:23:56;;;;;;;3.53;2.20;;;;;;;;;;7392334;19;20001;-76
2022/01/01 04:26:21;;;;;;;4.10;2.42;;;;;;;;;;7392778;19;20006;-76
2022/01/01 04:28:47;;;;;;;2.92;1.90;;;;;;;;;;7391849;19;20466;-76
2022/01/01 04:31:15;;;;;;;8.23;2.60;;;;;;;;;;7392976;19;19998;-76
2022/01/01 04:33:41;;;;;;;6.32;2.92;;;;;;;;;;7392310;19;19998;-75
2022/01/01 04:36:06;;;;;;;5.68;2.92;;;;;;;;;;7393057;19;19999;-76
2022/01/01 04:38:36;;;;;;;9.57;3.95;;;;;;;;;;7394742;19;20010;-76
2022/01/01 04:41:06;;;;;;;3.70;2.22;;;;;;;;;;7391618;19;20009;-76
2022/01/01 04:43:32;;;;;;;7.03;3.00;;;;;;;;;;7391955;19;19994;-76
2022/01/01 04:45:57;;;;;;;3.85;2.05;;;;;;;;;;7390359;19;19998;-76
2022/01/01 04:48:22;;;;;;;3.83;1.88;;;;;;;;;;7389881;19;20009;-76
2022/01/01 04:50:48;;;;;;;4.15;2.50;;;;;;;;;;7392038;19;19990;-76
2022/01/01 04:53:16;;;;;;;4.53;1.92;;;;;;;;;;7389842;19;20009;-76
2022/01/01 04:55:42;;;;;;;2.67;1.83;;;;;;;;;;7392087;19;19998;-76
2022/01/01 04:58:07;;;;;;;3.45;2.03;;;;;;;;;;7389270;19;19995;-75
2022/01/01 05:00:32;;;;;;;2.70;1.60;;;;;;;;;;7391091;19;20002;-76
2022/01/01 05:02:58;;;;;;;3.40;2.03;;;;;;;;;;7391472;19;19994;-77
2022/01/01 05:05:23;;;;;;;4.40;1.80;;;;;;;;;;7391311;19;20087;-76
2022/01/01 05:07:49;;;;;;;4.25;2.20;;;;;;;;;;7389919;19;20010;-76
2022/01/01 05:10:15;;;;;;;3.53;1.80;;;;;;;;;;7390205;19;19991;-76
2022/01/01 05:12:40;;;;;;;4.20;1.95;;;;;;;;;;7391237;19;20002;-76
2022/01/01 05:15:05;;;;;;;3.03;2.10;;;;;;;;;;7391150;19;20419;-76
2022/01/01 05:17:31;;;;;;;3.25;1.75;;;;;;;;;;7390157;19;20458;-76
2022/01/01 05:19:56;;;;;;;1.77;1.45;;;;;;;;;;7390388;19;19994;-76
2022/01/01 05:22:21;;;;;;;2.35;1.50;;;;;;;;;;7391583;19;20441;-76
2022/01/01 05:24:46;;;;;;;2.47;1.70;;;;;;;;;;7390242;19;20001;-76
2022/01/01 05:27:12;;;;;;;6.70;3.38;;;;;;;;;;7390172;19;19990;-76
2022/01/01 05:29:37;;;;;;;10.52;5.88;;;;;;;;;;7394610;19;19999;-76
2022/01/01 05:32:03;;;;;;;7.60;4.13;;;;;;;;;;7390546;19;20359;-76
2022/01/01 05:34:28;;;;;;;7.90;3.17;;;;;;;;;;7390578;19;19997;-76
2022/01/01 05:36:53;;;;;;;8.43;3.80;;;;;;;;;;7389637;19;20028;-76
2022/01/01 05:39:18;;;;;;;5.65;3.03;;;;;;;;;;7389019;19;20054;-76
2022/01/01 05:41:44;;;;;;;7.03;3.22;;;;;;;;;;7389177;19;20019;-76
2022/01/01 05:44:09;;;;;;;5.10;2.45;;;;;;;;;;7389924;19;19998;-76
2022/01/01 05:46:34;;;;;;;5.40;2.78;;;;;;;;;;7389641;19;19999;-76
2022/01/01 05:49:00;;;;;;;6.43;2.33;;;;;;;;;;7389369;19;20003;-76
2022/01/01 05:51:25;;;;;;;4.45;2.70;;;;;;;;;;7389978;19;20168;-76
2022/01/01 05:53:51;;;;;;;4.53;2.45;;;;;;;;;;7389204;19;19991;-76
2022/01/01 05:56:16;;;;;;;4.07;2.60;;;;;;;;;;7389538;19;20514;-76
2022/01/01 05:58:41;;;;;;;3.90;2.00;;;;;;;;;;7388963;19;19999;-76
2022/01/01 06:01:07;;;;;;;3.10;2.30;;;;;;;;;;7389357;19;20017;-76
2022/01/01 06:03:32;;;;;;;2.28;1.83;;;;;;;;;;7389563;19;19995;-76
2022/01/01 06:05:57;;;;;;;5.10;2.38;;;;;;;;;;7389988;19;19999;-76
2022/01/01 06:08:28;;;;;;;4.90;2.28;;;;;;;;;;7388579;19;20350;-76
2022/01/01 06:10:53;;;;;;;2.97;2.28;;;;;;;;;;7390370;19;19998;-76
2022/01/01 06:13:18;;;;;;;5.70;2.58;;;;;;;;;;7389172;19;20394;-76
2022/01/01 06:15:43;;;;;;;6.13;2.40;;;;;;;;;;7390378;19;20478;-76
2022/01/01 06:18:09;;;;;;;6.80;3.35;;;;;;;;;;7390279;19;20026;-76
2022/01/01 06:20:34;;;;;;;7.18;3.33;;;;;;;;;;7393030;19;19995;-76
2022/01/01 06:23:01;;;;;;;4.40;2.83;;;;;;;;;;7392824;19;19998;-76
2022/01/01 06:25:27;;;;;;;4.53;2.58;;;;;;;;;;7389067;19;19991;-75
2022/01/01 06:27:52;;;;;;;5.53;3.30;;;;;;;;;;7387494;19;20062;-76
2022/01/01 06:30:17;;;;;;;4.30;2.70;;;;;;;;;;7388304;19;20316;-75
2022/01/01 06:32:43;;;;;;;3.65;2.45;;;;;;;;;;7388989;19;19995;-75
2022/01/01 06:35:08;;;;;;;6.38;2.78;;;;;;;;;;7388790;19;20002;-76
2022/01/01 06:37:33;;;;;;;5.90;3.00;;;;;;;;;;7387325;19;19998;-77
2022/01/01 06:39:58;;;;;;;4.35;2.80;;;;;;;;;;7388025;19;20003;-76
2022/01/01 06:42:24;;;;;;;4.00;2.63;;;;;;;;;;7386710;19;19990;-76
2022/01/01 06:44:49;;;;;;;2.80;2.08;;;;;;;;;;7388970;19;20006;-76
2022/01/01 06:47:14;;;;;;;4.18;2.53;;;;;;;;;;7387784;19;20459;-76
2022/01/01 06:49:40;;;;;;;5.78;2.30;;;;;;;;;;7387670;19;20054;-76
2022/01/01 06:52:05;;;;;;;6.55;2.65;;;;;;;;;;7388624;19;20001;-76
2022/01/01 06:54:30;;;;;;;5.18;2.60;;;;;;;;;;7388299;19;20163;-76
2022/01/01 06:56:56;;;;;;;4.13;2.70;;;;;;;;;;7387334;19;20033;-76
2022/01/01 06:59:21;;;;;;;4.32;2.60;;;;;;;;;;7387839;19;20002;-75
2022/01/01 07:01:46;;;;;;;3.95;2.38;;;;;;;;;;7386762;19;20007;-75
2022/01/01 07:04:11;;;;;;;5.07;2.92;;;;;;;;;;7387843;19;20002;-76
2022/01/01 07:06:37;;;;;;;4.88;2.67;;;;;;;;;;7389895;19;20040;-76
2022/01/01 07:09:04;;;;;;;3.20;2.22;;;;;;;;;;7390254;19;20009;-76
2022/01/01 07:11:29;;;;;;;3.53;2.17;;;;;;;;;;7395369;19;20560;-76
2022/01/01 07:13:54;;;;;;;6.90;2.38;;;;;;;;;;7393795;19;20002;-76
2022/01/01 07:16:22;;;;;;;3.53;2.08;;;;;;;;;;7394812;19;20049;-76
2022/01/01 07:18:48;;;;;;;4.90;2.15;;;;;;;;;;7394468;19;20074;-75
2022/01/01 07:21:13;;;;;;;4.03;2.70;;;;;;;;;;7394135;19;19994;-76
2022/01/01 07:23:39;;;;;;;3.60;2.20;;;;;;;;;;7395809;19;20414;-76
2022/01/01 07:26:04;;;;;;;2.92;2.20;;;;;;;;;;7394782;19;20002;-76
2022/01/01 07:28:29;;;;;;;4.07;2.33;;;;;;;;;;7393934;19;19991;-75
2022/01/01 07:30:55;;;;;;;3.58;2.58;;;;;;;;;;7395002;19;19991;-76
2022/01/01 07:33:20;;;;;;;4.22;2.65;;;;;;;;;;7394202;19;20346;-76
2022/01/01 07:35:45;;;;;;;5.63;2.60;;;;;;;;;;7394534;19;20051;-76
2022/01/01 07:38:10;;;;;;;5.38;2.50;;;;;;;;;;7390840;19;19998;-76
2022/01/01 07:40:36;;;;;;;3.83;2.72;;;;;;;;;;7393857;19;19999;-76
2022/01/01 07:43:02;;;;;;;4.57;2.40;;;;;;;;;;7394039;19;19995;-75
2022/01/01 07:45:27;;;;;;;4.03;2.47;;;;;;;;;;7394426;19;20030;-77
2022/01/01 07:47:53;;;;;;;9.27;6.07;;;;;;;;;;7391892;19;19998;-76
2022/01/01 07:50:18;;;;;;;3.72;2.30;;;;;;;;;;7393450;19;19999;-76
2022/01/01 07:52:44;;;;;;;5.57;3.55;;;;;;;;;;7393997;19;19991;-75
2022/01/01 07:55:09;;;;;;;4.10;2.85;;;;;;;;;;7393326;19;19991;-75
2022/01/01 07:57:35;;;;;;;4.45;2.63;;;;;;;;;;7396150;19;19999;-76
2022/01/01 08:00:01;;;;;;;3.20;2.13;;;;;;;;;;7396462;19;20053;-76
2022/01/01 08:02:26;;;;;;;5.68;2.28;;;;;;;;;;7391180;19;20054;-75
2022/01/01 08:04:52;;;;;;;3.70;2.38;;;;;;;;;;7393547;19;19995;-76
2022/01/01 08:07:17;;;;;;;5.15;2.40;;;;;;;;;;7392030;19;19999;-77
2022/01/01 08:09:42;;;;;;;4.57;1.80;;;;;;;;;;7392115;19;20114;-76
2022/01/01 08:12:08;;;;;;;5.75;2.50;;;;;;;;;;7393359;19;19994;-76
2022/01/01 08:14:33;;;;;;;6.40;2.55;;;;;;;;;;7393215;19;20002;-75
2022/01/01 08:17:06;;;;;;;4.03;2.42;;;;;;;;;;7390947;19;20061;-76
2022/01/01 08:19:32;;;;;;;4.28;2.53;;;;;;;;;;7392797;19;20653;-76
2022/01/01 08:21:57;;;;;;;4.53;2.38;;;;;;;;;;7389171;19;20507;-76
2022/01/01 08:24:23;;;;;;;5.95;3.10;;;;;;;;;;7392108;19;19994;-76
2022/01/01 08:26:50;;;;;;;4.28;2.75;;;;;;;;;;7391989;19;20083;-76
2022/01/01 08:29:15;;;;;;;5.78;3.22;;;;;;;;;;7392044;19;20454;-75
2022/01/01 08:31:41;;;;;;;5.97;4.22;;;;;;;;;;7392503;19;20001;-76
2022/01/01 08:34:06;;;;;;;6.07;2.90;;;;;;;;;;7392417;19;19999;-76
2022/01/01 08:36:32;;;;;;;5.93;2.80;;;;;;;;;;7392023;19;20016;-76
2022/01/01 08:38:57;;;;;;;5.75;2.53;;;;;;;;;;7391280;19;20539;-75
2022/01/01 08:41:22;;;;;;;3.85;2.45;;;;;;;;;;7390382;19;19991;-76
2022/01/01 08:43:48;;;;;;;4.97;2.42;;;;;;;;;;7392028;19;20005;-76
2022/01/01 08:46:13;;;;;;;5.00;2.58;;;;;;;;;;7393593;19;19999;-76
2022/01/01 08:48:38;;;;;;;3.10;2.05;;;;;;;;;;7395797;19;20035;-76
2022/01/01 08:51:13;;;;;;;3.80;2.42;;;;;;;;;;7391957;19;19998;-76
2022/01/01 08:53:38;;;;;;;3.97;2.30;;;;;;;;;;7391259;19;20019;-76
2022/01/01 08:56:07;;;;;;;3.67;2.40;;;;;;;;;;7392176;19;19995;-75
2022/01/01 08:58:33;;;;;;;28.75;11.60;;;;;;;;;;7391384;19;19994;-76
2022/01/01 09:00:59;;;;;;;10.70;4.82;;;;;;;;;;7390895;19;20023;-76
2022/01/01 09:03:24;;;;;;;6.57;3.15;;;;;;;;;;7391597;19;19999;-76
2022/01/01 09:05:49;;;;;;;3.90;2.00;;;;;;;;;;7391841;19;19991;-75
2022/01/01 09:08:14;;;;;;;4.78;2.50;;;;;;;;;;7388183;19;20070;-75
2022/01/01 09:10:40;;;;;;;4.07;2.30;;;;;;;;;;7391516;19;20328;-77
2022/01/01 09:13:05;;;;;;;5.30;2.88;;;;;;;;;;7391508;19;19998;-76
2022/01/01 09:15:30;;;;;;;5.88;2.45;;;;;;;;;;7391108;19;20012;-76
2022/01/01 09:17:55;;;;;;;4.47;2.47;;;;;;;;;;7389830;19;20011;-75
2022/01/01 09:20:21;;;;;;;7.03;2.85;;;;;;;;;;7390411;19;19999;-76
2022/01/01 09:22:46;;;;;;;3.72;2.58;;;;;;;;;;7394623;19;19995;-76
2022/01/01 09:25:12;;;;;;;5.47;3.10;;;;;;;;;;7390447;19;20019;-76
2022/01/01 09:27:38;;;;;;;6.90;3.97;;;;;;;;;;7389566;19;20023;-75
2022/01/01 09:30:04;;;;;;;5.80;2.70;;;;;;;;;;7389984;19;19994;-76
2022/01/01 09:32:29;;;;;;;3.38;2.30;;;;;;;;;;7391831;19;20013;-75
2022/01/01 09:34:55;;;;;;;4.15;2.85;;;;;;;;;;7390562;19;19995;-76
2022/01/01 09:37:20;;;;;;;7.55;2.85;;;;;;;;;;7394187;19;20112;-76
2022/01/01 09:39:46;;;;;;;4.63;2.38;;;;;;;;;;7393870;19;20343;-76
2022/01/01 09:42:12;;;;;;;5.68;2.55;;;;;;;;;;7389204;19;19991;-76
2022/01/01 09:44:38;;;;;;;3.15;2.33;;;;;;;;;;7390036;19;20434;-76
2022/01/01 09:47:04;;;;;;;4.03;2.53;;;;;;;;;;7389549;19;19991;-76
2022/01/01 09:49:29;;;;;;;3.35;1.80;;;;;;;;;;7389569;19;19986;-76
2022/01/01 09:51:54;;;;;;;3.28;2.30;;;;;;;;;;7390190;19;19994;-78
2022/01/01 09:54:19;;;;;;;4.30;2.30;;;;;;;;;;7389373;19;20348;-75
2022/01/01 09:56:45;;;;;;;4.57;2.65;;;;;;;;;;7389563;19;20012;-76
2022/01/01 09:59:14;;;;;;;4.38;2.63;;;;;;;;;;7389344;19;20353;-76
2022/01/01 10:01:39;;;;;;;4.75;2.95;;;;;;;;;;7388855;19;20469;-76
2022/01/01 10:04:12;;;;;;;4.25;2.40;;;;;;;;;;7389510;19;19995;-76
2022/01/01 10:06:37;;;;;;;3.90;2.47;;;;;;;;;;7389715;19;19998;-75
2022/01/01 10:09:03;;;;;;;4.97;2.78;;;;;;;;;;7391053;19;20018;-76
2022/01/01 10:11:30;;;;;;;4.60;2.80;;;;;;;;;;7389743;19;19997;-75
2022/01/01 10:13:56;;;;;;;5.30;3.20;;;;;;;;;;7389478;19;20002;-75
2022/01/01 10:16:22;;;;;;;6.07;3.03;;;;;;;;;;7389297;19;19995;-75
2022/01/01 10:18:50;;;;;;;4.65;2.50;;;;;;;;;;7388988;19;20089;-76
2022/01/01 10:21:18;;;;;;;4.35;2.58;;;;;;;;;;7388751;19;20465;-75
2022/01/01 10:23:49;;;;;;;3.17;2.30;;;;;;;;;;7388478;19;20014;-75
2022/01/01 10:29:15;;;;;;;3.72;2.20;;;;;;;;;;7393629;19;20006;-76
2022/01/01 10:31:59;;;;;;;4.15;2.60;;;;;;;;;;7389117;19;20317;-76
2022/01/01 10:34:32;;;;;;;4.22;2.50;;;;;;;;;;7389182;19;20006;-76
2022/01/01 10:36:57;;;;;;;4.90;2.50;;;;;;;;;;7388141;19;20505;-76
2022/01/01 10:39:23;;;;;;;5.03;2.92;;;;;;;;;;7387880;19;20078;-75
2022/01/01 10:41:54;;;;;;;4.18;2.25;;;;;;;;;;7387324;19;19995;-75
2022/01/01 10:44:38;;;;;;;3.60;2.50;;;;;;;;;;7389298;19;20019;-76
2022/01/01 10:47:19;;;;;;;8.90;4.45;;;;;;;;;;7394859;19;20474;-76
2022/01/01 10:52:12;;;;;;;3.15;2.03;;;;;;;;;;7396135;19;19999;-76
2022/01/01 10:54:38;;;;;;;4.57;2.63;;;;;;;;;;7393886;19;20006;-76
2022/01/01 10:57:07;;;;;;;4.20;2.10;;;;;;;;;;7394413;19;19999;-76
2022/01/01 10:59:37;;;;;;;5.05;2.13;;;;;;;;;;7395565;19;19994;-75
2022/01/01 11:02:06;;;;;;;4.40;2.45;;;;;;;;;;7393849;19;20015;-75
2022/01/01 11:04:33;;;;;;;4.43;2.58;;;;;;;;;;7395350;19;20320;-76
2022/01/01 11:06:58;;;;;;;4.78;2.38;;;;;;;;;;7394320;19;20037;-75
2022/01/01 11:09:24;;;;;;;4.47;2.72;;;;;;;;;;7394225;19;20003;-76
2022/01/01 11:11:49;;;;;;;2.92;2.10;;;;;;;;;;7395551;19;20005;-75
2022/01/01 11:14:15;;;;;;;9.23;4.65;;;;;;;;;;7395210;19;19991;-75
2022/01/01 11:16:42;;;;;;;3.42;2.47;;;;;;;;;;7398380;19;20007;-76
2022/01/01 11:19:08;;;;;;;3.70;2.30;;;;;;;;;;7397836;19;20454;-76
2022/01/01 11:21:34;;;;;;;4.78;2.47;;;;;;;;;;7395169;19;20016;-76
2022/01/01 11:24:00;;;;;;;5.70;2.47;;;;;;;;;;7394072;19;20357;-76
2022/01/01 11:26:26;;;;;;;3.88;2.60;;;;;;;;;;7394368;19;19998;-76
2022/01/01 11:28:52;;;;;;;4.72;2.00;;;;;;;;;;7398122;19;19998;-75
2022/01/01 11:31:19;;;;;;;4.05;2.40;;;;;;;;;;7394680;19;20012;-76
2022/01/01 11:33:51;;;;;;;2.95;1.90;;;;;;;;;;7394567;19;20006;-75
2022/01/01 11:36:22;;;;;;;2.42;1.75;;;;;;;;;;7394240;19;20014;-76
2022/01/01 11:38:48;;;;;;;4.20;2.15;;;;;;;;;;7393298;19;19994;-76
2022/01/01 11:41:17;;;;;;;3.63;1.92;;;;;;;;;;7393082;19;19995;-75
2022/01/01 11:43:51;;;;;;;3.78;2.20;;;;;;;;;;7393936;19;20058;-76
2022/01/01 11:46:33;;;;;;;4.03;2.13;;;;;;;;;;7394185;19;19998;-75
2022/01/01 11:49:04;;;;;;;4.15;2.20;;;;;;;;;;7393322;19;20018;-75
2022/01/01 11:51:32;;;;;;;2.35;1.67;;;;;;;;;;7394250;19;20079;-76
2022/01/01 11:54:08;;;;;;;3.22;2.00;;;;;;;;;;7393131;19;20621;-75
2022/01/01 11:56:45;;;;;;;3.72;2.17;;;;;;;;;;7393154;19;20458;-76
2022/01/01 11:59:38;;;;;;;4.47;2.20;;;;;;;;;;7392787;19;20545;-75
2022/01/01 12:02:05;;;;;;;4.40;2.28;;;;;;;;;;7391953;19;20003;-76
2022/01/01 12:04:44;;;;;;;4.03;2.10;;;;;;;;;;7393270;19;20062;-75
2022/01/01 12:07:18;;;;;;;4.93;2.15;;;;;;;;;;7395581;19;20007;-75
2022/01/01 12:10:01;;;;;;;3.70;1.83;;;;;;;;;;7392149;19;20045;-76
2022/01/01 12:13:03;;;;;;;4.28;1.77;;;;;;;;;;7393155;19;20084;-76
2022/01/01 12:15:36;;;;;;;4.70;2.13;;;;;;;;;;7392864;19;20062;-75
2022/01/01 12:18:14;;;;;;;2.45;1.50;;;;;;;;;;7390694;19;20016;-76
2022/01/01 12:20:50;;;;;;;5.10;2.20;;;;;;;;;;7393251;19;20074;-76
2022/01/01 12:23:20;;;;;;;3.83;1.77;;;;;;;;;;7396458;19;20043;-76
2022/01/01 12:25:47;;;;;;;4.35;1.88;;;;;;;;;;7393374;19;20014;-76
2022/01/01 12:28:18;;;;;;;3.25;1.92;;;;;;;;;;7390275;19;20441;-75
2022/01/01 12:30:46;;;;;;;3.42;1.85;;;;;;;;;;7393869;19;20016;-76
2022/01/01 12:33:22;;;;;;;3.15;1.90;;;;;;;;;;7392669;19;20530;-75
2022/01/01 12:36:07;;;;;;;5.28;2.35;;;;;;;;;;7392848;19;20069;-76
2022/01/01 12:38:34;;;;;;;;;;;;;;;;;;7391792;19;20026;-76
2022/01/01 12:41:12;;;;;;;2.85;1.75;;;;;;;;;;7391856;19;19935;-75
2022/01/01 12:43:45;;;;;;;2.42;1.70;;;;;;;;;;7392317;19;20019;-76
2022/01/01 12:46:12;;;;;;;3.83;2.47;;;;;;;;;;7391846;19;20006;-75
2022/01/01 12:48:38;;;;;;;3.97;2.10;;;;;;;;;;7391626;19;19991;-76
2022/01/01 12:51:06;;;;;;;20.33;9.50;;;;;;;;;;7392267;19;20036;-75
2022/01/01 12:53:33;;;;;;;8.73;4.05;;;;;;;;;;7391171;19;20429;-75
2022/01/01 12:56:05;;;;;;;5.30;2.47;;;;;;;;;;7395199;19;20010;-76
2022/01/01 12:58:35;;;;;;;5.45;1.92;;;;;;;;;;7395076;19;20001;-75
2022/01/01 13:01:07;;;;;;;4.85;1.80;;;;;;;;;;7391353;19;20535;-75
2022/01/01 13:03:33;;;;;;;3.90;2.05;;;;;;;;;;7391434;19;20023;-76
2022/01/01 13:05:58;;;;;;;3.05;1.50;;;;;;;;;;7391681;19;20391;-76
2022/01/01 13:08:23;;;;;;;3.22;1.60;;;;;;;;;;7386695;19;20474;-76
2022/01/01 13:10:49;;;;;;;2.95;2.08;;;;;;;;;;7391131;19;20058;-76
2022/01/01 13:13:18;;;;;;;2.00;1.50;;;;;;;;;;7391443;19;20078;-76
2022/01/01 13:15:43;;;;;;;2.63;1.58;;;;;;;;;;7391301;19;20006;-76
2022/01/01 13:18:09;;;;;;;3.67;2.05;;;;;;;;;;7389256;19;20013;-76
2022/01/01 13:20:35;;;;;;;2.65;1.42;;;;;;;;;;7390976;19;20470;-75
2022/01/01 13:23:04;;;;;;;2.30;1.50;;;;;;;;;;7393811;19;20063;-76
2022/01/01 13:25:29;;;;;;;2.10;1.42;;;;;;;;;;7390729;19;20818;-78
2022/01/01 13:27:54;;;;;;;2.63;1.40;;;;;;;;;;7389434;19;20002;-76
2022/01/01 13:30:22;;;;;;;2.03;1.30;;;;;;;;;;7390342;19;20402;-75
2022/01/01 13:32:49;;;;;;;3.38;1.80;;;;;;;;;;7390993;19;20013;-76
2022/01/01 13:35:27;;;;;;;3.00;1.42;;;;;;;;;;7390678;19;19999;-76
2022/01/01 13:37:53;;;;;;;1.50;1.13;;;;;;;;;;7389057;19;20002;-75
2022/01/01 13:40:19;;;;;;;1.65;1.27;;;;;;;;;;7389196;19;20006;-76
2022/01/01 13:42:45;;;;;;;2.67;1.60;;;;;;;;;;7388881;19;19999;-76
2022/01/01 13:45:10;;;;;;;1.42;1.00;;;;;;;;;;7392521;19;20009;-76
2022/01/01 13:47:37;;;;;;;2.10;1.40;;;;;;;;;;7393105;19;20031;-76
2022/01/01 13:50:13;;;;;;;4.40;1.58;;;;;;;;;;7389431;19;20067;-76
2022/01/01 13:52:38;;;;;;;2.92;1.33;;;;;;;;;;7390521;19;20011;-75
2022/01/01 13:55:07;;;;;;;4.95;1.70;;;;;;;;;;7389477;19;20459;-76
2022/01/01 13:57:37;;;;;;;3.03;1.45;;;;;;;;;;7388744;19;20013;-76
2022/01/01 14:00:03;;;;;;;1.90;1.42;;;;;;;;;;7389355;19;20485;-76
2022/01/01 14:02:30;;;;;;;2.92;1.45;;;;;;;;;;7388360;19;20596;-76
2022/01/01 14:04:57;;;;;;;3.35;1.98;;;;;;;;;;7389619;19;19998;-76
2022/01/01 14:07:23;;;;;;;3.38;1.48;;;;;;;;;;7388535;19;20033;-75
2022/01/01 14:10:02;;;;;;;3.30;2.10;;;;;;;;;;7388542;19;20485;-76
2022/01/01 14:12:36;;;;;;;2.92;1.65;;;;;;;;;;7389799;19;19995;-76
2022/01/01 14:15:14;;;;;;;1.60;1.25;;;;;;;;;;7389636;19;19999;-76
2022/01/01 14:18:07;;;;;;;3.05;1.60;;;;;;;;;;7388030;19;19999;-75
2022/01/01 14:20:35;;;;;;;3.90;1.80;;;;;;;;;;7393537;19;20450;-76
2022/01/01 14:23:05;;;;;;;3.40;1.70;;;;;;;;;;7400545;19;20002;-76
2022/01/01 14:25:32;;;;;;;1.35;1.20;;;;;;;;;;7397363;19;20492;-76
2022/01/01 14:28:11;;;;;;;3.55;1.90;;;;;;;;;;7395018;19;20099;-75
2022/01/01 14:30:36;;;;;;;2.83;1.58;;;;;;;;;;7396684;19;20021;-76
2022/01/01 14:33:06;;;;;;;1.95;1.08;;;;;;;;;;7396430;19;19995;-76
2022/01/01 14:35:32;;;;;;;1.48;1.10;;;;;;;;;;7398931;19;20023;-76
2022/01/01 14:37:58;;;;;;;1.92;1.10;;;;;;;;;;7393907;19;20010;-77
2022/01/01 14:40:25;;;;;;;1.52;1.27;;;;;;;;;;7395561;19;20002;-76
2022/01/01 14:42:50;;;;;;;2.50;1.30;;;;;;;;;;7393530;19;20063;-76
2022/01/01 14:45:15;;;;;;;2.55;1.45;;;;;;;;;;7396144;19;19991;-76
2022/01/01 14:47:47;;;;;;;2.40;1.50;;;;;;;;;;7394041;19;20003;-76